Time;durP1;ratioP1;P1;durP2;ratioP2;P2;SDS_P1;SDS_P2;PMS_P1;PMS_P2;Temp;Humidity;BMP_temperature;BMP_pressure;BME280_temperature;BME280_humidity;BME280_pressure;Samples;Min_cycle;Max_cycle;Signal;HPM_P1;HPM_P2
2021/10/12 00:00:59;;;;;;;6.80;6.13;;;11.20;99.90;;;;;;5014060;28;20168;-62
2021/10/12 00:03:25;;;;;;;7.30;6.90;;;11.20;99.90;;;;;;5014155;28;20259;-63
2021/10/12 00:05:51;;;;;;;6.30;6.00;;;11.10;99.90;;;;;;4999150;28;20176;-63
2021/10/12 00:08:17;;;;;;;7.30;6.90;;;11.10;99.90;;;;;;4994157;28;20201;-63
2021/10/12 00:10:42;;;;;;;7.13;6.73;;;11.10;99.90;;;;;;5006902;28;20188;-63
2021/10/12 00:13:08;;;;;;;6.20;5.90;;;11.00;99.90;;;;;;5013967;28;20638;-62
2021/10/12 00:15:34;;;;;;;6.30;5.93;;;11.00;99.90;;;;;;5002660;28;20275;-62
2021/10/12 00:18:00;;;;;;;6.40;5.90;;;11.00;99.90;;;;;;4994017;28;20219;-63
2021/10/12 00:20:25;;;;;;;6.33;5.73;;;10.90;99.90;;;;;;5003104;28;20180;-62
2021/10/12 00:22:51;;;;;;;5.80;5.50;;;10.90;99.90;;;;;;5013625;28;20179;-63
2021/10/12 00:25:17;;;;;;;6.20;5.90;;;11.00;99.90;;;;;;5005767;28;20220;-63
2021/10/12 00:27:43;;;;;;;7.37;6.97;;;11.00;99.90;;;;;;4993919;28;20185;-62
2021/10/12 00:30:09;;;;;;;6.23;5.63;;;11.10;99.90;;;;;;4999889;28;20244;-63
2021/10/12 00:32:34;;;;;;;6.23;6.00;;;11.10;99.90;;;;;;5013414;28;20176;-63
2021/10/12 00:35:00;;;;;;;6.40;6.00;;;11.10;99.90;;;;;;5009118;28;20200;-62
2021/10/12 00:37:26;;;;;;;6.10;5.80;;;11.10;99.90;;;;;;4993845;28;20209;-62
2021/10/12 00:39:51;;;;;;;5.73;5.50;;;11.10;99.90;;;;;;4995636;28;20499;-63
2021/10/12 00:42:17;;;;;;;6.37;5.97;;;11.10;99.90;;;;;;5013569;28;20176;-63
2021/10/12 00:44:44;;;;;;;6.77;6.37;;;11.00;99.90;;;;;;5012352;28;20184;-63
2021/10/12 00:47:10;;;;;;;6.00;5.70;;;11.00;99.90;;;;;;4993806;28;20264;-63
2021/10/12 00:49:35;;;;;;;6.23;5.73;;;11.00;99.90;;;;;;5002632;28;20282;-63
2021/10/12 00:52:01;;;;;;;6.50;6.20;;;11.00;99.90;;;;;;5013191;28;20183;-63
2021/10/12 00:54:27;;;;;;;6.90;6.40;;;10.90;99.90;;;;;;4999432;28;20176;-62
2021/10/12 00:56:52;;;;;;;6.57;6.07;;;10.90;99.90;;;;;;4993435;28;20508;-63
2021/10/12 00:59:18;;;;;;;6.43;6.13;;;10.90;99.90;;;;;;5004513;28;20286;-63
2021/10/12 01:01:44;;;;;;;6.97;6.57;;;10.90;99.90;;;;;;5012953;28;20230;-63
2021/10/12 01:04:10;;;;;;;7.10;6.53;;;10.80;99.90;;;;;;5002429;28;20706;-63
2021/10/12 01:06:36;;;;;;;6.97;6.57;;;10.80;99.90;;;;;;4992973;28;20260;-63
2021/10/12 01:09:02;;;;;;;7.30;6.80;;;10.70;99.90;;;;;;5000757;28;20208;-63
2021/10/12 01:11:28;;;;;;;6.87;6.37;;;10.80;99.90;;;;;;5012697;28;20183;-63
2021/10/12 01:13:54;;;;;;;7.60;7.07;;;10.70;99.90;;;;;;5012095;28;20271;-63
2021/10/12 01:16:20;;;;;;;7.53;6.93;;;10.70;99.90;;;;;;5012774;28;20172;-63
2021/10/12 01:19:03;;;;;;;6.43;5.93;;;10.70;99.90;;;;;;5010852;28;20766;-63
2021/10/12 01:21:30;;;;;;;8.80;7.87;;;10.70;99.90;;;;;;5012662;28;20173;-63
2021/10/12 01:23:57;;;;;;;7.03;6.63;;;10.70;99.90;;;;;;5006234;28;20510;-63
2021/10/12 01:26:23;;;;;;;6.70;6.30;;;10.70;99.90;;;;;;4992860;28;20445;-64
2021/10/12 01:28:49;;;;;;;8.07;7.57;;;10.70;99.90;;;;;;4997334;28;20612;-63
2021/10/12 01:31:22;;;;;;;9.93;7.07;;;10.70;99.90;;;;;;5011922;28;20179;-63
2021/10/12 01:33:48;;;;;;;6.43;6.13;;;10.60;99.90;;;;;;5006451;28;20180;-63
2021/10/12 01:36:14;;;;;;;6.87;6.47;;;10.60;99.90;;;;;;5012302;28;20665;-63
2021/10/12 01:38:41;;;;;;;7.77;7.27;;;10.60;99.90;;;;;;5011787;28;20250;-63
2021/10/12 01:41:06;;;;;;;7.83;7.23;;;10.60;99.90;;;;;;5011932;28;20175;-63
2021/10/12 01:43:32;;;;;;;8.40;7.63;;;10.60;99.90;;;;;;5012299;28;20247;-64
2021/10/12 01:46:02;;;;;;;7.57;7.07;;;10.70;99.90;;;;;;5012200;28;20175;-63
2021/10/12 01:48:27;;;;;;;8.53;7.73;;;10.70;99.90;;;;;;5011760;28;20232;-64
2021/10/12 01:50:53;;;;;;;7.40;6.70;;;10.70;99.90;;;;;;5011828;28;20697;-63
2021/10/12 01:53:18;;;;;;;7.83;7.13;;;10.70;99.90;;;;;;5011933;28;20176;-63
2021/10/12 01:55:44;;;;;;;7.20;6.80;;;10.60;99.90;;;;;;5012048;28;20184;-63
2021/10/12 01:58:10;;;;;;;7.80;7.20;;;10.60;99.90;;;;;;5011459;28;20222;-63
2021/10/12 02:00:35;;;;;;;8.53;7.80;;;10.60;99.90;;;;;;5011737;28;20180;-63
2021/10/12 02:03:01;;;;;;;7.90;7.40;;;10.60;99.90;;;;;;5011963;28;20176;-63
2021/10/12 02:05:26;;;;;;;7.40;6.73;;;10.60;99.90;;;;;;5011814;28;20603;-63
2021/10/12 02:07:52;;;;;;;7.50;7.10;;;10.60;99.90;;;;;;5011793;28;20202;-63
2021/10/12 02:10:18;;;;;;;7.83;6.90;;;10.70;99.90;;;;;;5011389;28;20168;-63
2021/10/12 02:12:43;;;;;;;8.47;7.80;;;10.60;99.90;;;;;;5011714;28;20205;-63
2021/10/12 02:15:09;;;;;;;7.47;6.93;;;10.70;99.90;;;;;;5011646;28;20229;-63
2021/10/12 02:17:35;;;;;;;7.33;6.80;;;10.70;99.90;;;;;;5011615;28;20191;-63
2021/10/12 02:20:01;;;;;;;7.70;7.20;;;10.60;99.90;;;;;;5011350;28;20194;-63
2021/10/12 02:22:27;;;;;;;8.00;7.50;;;10.60;99.90;;;;;;5011775;28;20172;-64
2021/10/12 02:24:53;;;;;;;7.80;7.30;;;10.60;99.90;;;;;;5011872;28;20330;-63
2021/10/12 02:27:18;;;;;;;7.77;7.17;;;10.60;99.90;;;;;;5011532;28;20183;-63
2021/10/12 02:29:44;;;;;;;8.20;7.67;;;10.60;99.90;;;;;;5011305;28;20188;-63
2021/10/12 02:32:10;;;;;;;7.17;6.73;;;10.60;99.90;;;;;;5011637;28;20180;-63
2021/10/12 02:34:36;;;;;;;7.93;7.23;;;10.60;99.90;;;;;;5013012;28;20532;-68
2021/10/12 02:37:02;;;;;;;7.53;6.93;;;10.60;99.90;;;;;;5013600;28;20187;-69
2021/10/12 02:39:27;;;;;;;7.90;7.40;;;10.60;99.90;;;;;;5012952;28;20292;-68
2021/10/12 02:41:53;;;;;;;8.03;7.57;;;10.60;99.90;;;;;;5013618;28;20223;-68
2021/10/12 02:44:19;;;;;;;8.63;8.03;;;10.60;99.90;;;;;;5013547;28;20204;-69
2021/10/12 02:46:44;;;;;;;7.77;7.27;;;10.60;99.90;;;;;;5013262;28;20208;-67
2021/10/12 02:49:10;;;;;;;7.33;6.83;;;10.60;99.90;;;;;;5012838;28;20204;-68
2021/10/12 02:51:36;;;;;;;8.20;7.70;;;10.60;99.90;;;;;;5013457;28;20668;-66
2021/10/12 02:54:01;;;;;;;8.30;7.83;;;10.60;99.90;;;;;;5013116;28;20215;-69
2021/10/12 02:56:27;;;;;;;8.67;8.17;;;10.50;99.90;;;;;;5012919;28;20638;-69
2021/10/12 02:58:52;;;;;;;7.97;7.47;;;10.40;99.90;;;;;;5012900;28;20206;-69
2021/10/12 03:01:18;;;;;;;8.30;7.70;;;10.40;99.90;;;;;;5012947;28;20173;-70
2021/10/12 03:03:44;;;;;;;7.27;6.77;;;10.50;99.90;;;;;;5012782;28;20168;-68
2021/10/12 03:06:09;;;;;;;7.80;7.20;;;10.50;99.90;;;;;;5011940;28;20172;-66
2021/10/12 03:08:35;;;;;;;8.27;7.60;;;10.50;99.90;;;;;;5012867;28;20242;-68
2021/10/12 03:11:01;;;;;;;9.30;7.90;;;10.50;99.90;;;;;;5012644;28;20180;-66
2021/10/12 03:13:26;;;;;;;8.00;7.40;;;10.40;99.90;;;;;;5013075;28;20234;-69
2021/10/12 03:15:52;;;;;;;8.30;7.70;;;10.50;99.90;;;;;;5012396;28;20677;-69
2021/10/12 03:18:17;;;;;;;8.53;7.83;;;10.50;99.90;;;;;;5012878;28;20208;-67
2021/10/12 03:20:43;;;;;;;9.13;8.33;;;10.50;99.90;;;;;;5012636;28;20262;-67
2021/10/12 03:23:09;;;;;;;10.47;9.50;;;10.50;99.90;;;;;;5012581;28;20180;-68
2021/10/12 03:25:35;;;;;;;10.80;10.07;;;10.50;99.90;;;;;;5012992;28;20713;-69
2021/10/12 03:28:00;;;;;;;10.20;9.40;;;10.50;99.90;;;;;;5013449;28;20242;-70
2021/10/12 03:30:26;;;;;;;10.23;9.37;;;10.50;99.90;;;;;;5016288;28;20172;-69
2021/10/12 03:32:52;;;;;;;10.20;8.43;;;10.50;99.90;;;;;;5015904;28;20562;-67
2021/10/12 03:35:25;;;;;;;9.23;8.63;;;10.50;99.90;;;;;;5016483;28;20172;-69
2021/10/12 03:37:51;;;;;;;8.87;8.27;;;10.50;99.90;;;;;;5015675;28;20200;-69
2021/10/12 03:40:17;;;;;;;8.47;7.93;;;10.50;99.90;;;;;;5016014;28;20187;-67
2021/10/12 03:42:42;;;;;;;9.10;8.30;;;10.50;99.90;;;;;;5015646;28;20654;-68
2021/10/12 03:45:08;;;;;;;9.63;8.83;;;10.50;99.90;;;;;;5014710;28;20172;-64
2021/10/12 03:47:34;;;;;;;8.57;7.97;;;10.40;99.90;;;;;;5014035;28;20266;-65
2021/10/12 03:50:00;;;;;;;9.07;8.27;;;10.40;99.90;;;;;;5013797;28;20208;-65
2021/10/12 03:52:25;;;;;;;8.47;7.87;;;10.40;99.90;;;;;;5014110;28;20180;-65
2021/10/12 03:54:51;;;;;;;8.70;8.03;;;10.30;99.90;;;;;;5013237;28;20187;-62
2021/10/12 03:57:17;;;;;;;9.83;9.03;;;10.30;99.90;;;;;;4994651;28;20188;-65
2021/10/12 03:59:42;;;;;;;8.77;8.07;;;10.30;99.90;;;;;;4995020;28;20223;-64
2021/10/12 04:02:08;;;;;;;9.73;8.87;;;10.30;99.90;;;;;;5013288;28;20668;-64
2021/10/12 04:04:35;;;;;;;9.57;8.97;;;10.30;99.90;;;;;;5014419;28;20219;-64
2021/10/12 04:07:00;;;;;;;8.47;7.87;;;10.30;99.90;;;;;;4997319;28;20180;-64
2021/10/12 04:09:26;;;;;;;9.50;8.70;;;10.30;99.90;;;;;;4994408;28;20200;-64
2021/10/12 04:11:51;;;;;;;9.27;8.50;;;10.30;99.90;;;;;;5009698;28;20184;-64
2021/10/12 04:14:17;;;;;;;9.00;8.30;;;10.30;99.90;;;;;;5014248;28;20187;-64
2021/10/12 04:16:43;;;;;;;8.80;8.20;;;10.30;99.90;;;;;;5001109;28;20188;-62
2021/10/12 04:19:08;;;;;;;8.33;7.70;;;10.30;99.90;;;;;;5000472;28;20675;-64
2021/10/12 04:21:34;;;;;;;9.50;8.80;;;10.20;99.90;;;;;;4994951;28;20252;-64
2021/10/12 04:23:59;;;;;;;10.00;9.10;;;10.20;99.90;;;;;;4998099;28;20606;-64
2021/10/12 04:26:27;;;;;;;8.33;7.73;;;10.30;99.90;;;;;;4994555;28;20180;-64
2021/10/12 04:28:52;;;;;;;9.07;8.37;;;10.20;99.90;;;;;;5002398;28;20231;-64
2021/10/12 04:31:18;;;;;;;8.53;7.83;;;10.20;99.90;;;;;;5013800;28;20184;-64
2021/10/12 04:33:44;;;;;;;10.07;8.33;;;10.20;99.90;;;;;;5008051;28;20222;-64
2021/10/12 04:36:09;;;;;;;9.67;8.90;;;10.20;99.90;;;;;;4995178;28;20189;-64
2021/10/12 04:38:35;;;;;;;11.67;8.53;;;10.20;99.90;;;;;;4998858;28;20273;-65
2021/10/12 04:41:02;;;;;;;7.93;7.43;;;10.10;99.90;;;;;;5012532;28;20630;-65
2021/10/12 04:43:27;;;;;;;8.13;7.57;;;10.10;99.90;;;;;;5010512;28;20176;-64
2021/10/12 04:45:53;;;;;;;8.23;7.63;;;10.20;99.90;;;;;;4994143;28;20187;-64
2021/10/12 04:48:19;;;;;;;9.27;8.33;;;10.10;99.90;;;;;;5003184;28;20204;-64
2021/10/12 04:50:45;;;;;;;8.50;7.70;;;10.10;99.90;;;;;;5013593;28;20187;-64
2021/10/12 04:53:10;;;;;;;7.87;7.37;;;10.10;99.90;;;;;;5005940;28;20623;-64
2021/10/12 04:55:40;;;;;;;8.53;7.93;;;10.20;99.90;;;;;;4993991;28;20215;-64
2021/10/12 04:58:06;;;;;;;7.80;7.30;;;10.20;99.90;;;;;;5000063;28;20681;-64
2021/10/12 05:00:32;;;;;;;8.23;7.53;;;10.20;99.90;;;;;;5013069;28;20180;-64
2021/10/12 05:02:57;;;;;;;8.00;7.50;;;10.10;99.90;;;;;;5008486;28;20173;-64
2021/10/12 05:05:23;;;;;;;7.43;6.97;;;10.10;99.90;;;;;;4993575;28;20173;-64
2021/10/12 05:07:49;;;;;;;8.20;7.60;;;10.20;99.90;;;;;;4996274;28;20701;-64
2021/10/12 05:10:14;;;;;;;7.57;7.07;;;10.20;99.90;;;;;;5012993;28;20184;-64
2021/10/12 05:12:40;;;;;;;8.87;7.70;;;10.20;99.90;;;;;;5002253;28;20635;-64
2021/10/12 05:15:06;;;;;;;9.93;7.00;;;10.20;99.90;;;;;;4993573;28;20180;-64
2021/10/12 05:20:00;;;;;;;8.03;7.53;;;10.20;99.90;;;;;;5011697;28;20267;-64
2021/10/12 05:22:26;;;;;;;7.23;6.83;;;10.20;99.90;;;;;;5005297;28;20697;-64
2021/10/12 05:24:51;;;;;;;7.73;7.03;;;10.20;99.90;;;;;;4993277;28;20177;-64
2021/10/12 05:27:17;;;;;;;7.13;6.63;;;10.20;99.90;;;;;;4998634;28;20176;-64
2021/10/12 05:29:43;;;;;;;7.10;6.70;;;10.20;99.90;;;;;;5012420;28;20232;-64
2021/10/12 05:32:09;;;;;;;7.87;7.13;;;10.20;99.90;;;;;;5008549;28;20521;-64
2021/10/12 05:34:35;;;;;;;7.90;7.40;;;10.20;99.90;;;;;;4993030;28;20183;-64
2021/10/12 05:37:00;;;;;;;7.47;7.07;;;10.20;99.90;;;;;;4995074;28;20243;-64
2021/10/12 05:39:28;;;;;;;7.23;6.73;;;10.20;99.90;;;;;;5012406;28;20259;-64
2021/10/12 05:41:55;;;;;;;8.57;7.80;;;10.20;99.90;;;;;;4994501;28;20706;-64
2021/10/12 05:44:20;;;;;;;6.87;6.47;;;10.20;99.90;;;;;;4992925;28;20626;-64
2021/10/12 05:46:46;;;;;;;8.70;8.10;;;10.20;99.90;;;;;;5008971;28;20218;-64
2021/10/12 05:49:11;;;;;;;9.20;8.27;;;10.20;99.90;;;;;;5009125;28;20744;-64
2021/10/12 05:51:37;;;;;;;8.63;7.87;;;10.20;99.90;;;;;;5011528;28;20242;-64
2021/10/12 05:54:05;;;;;;;8.17;7.57;;;10.20;99.90;;;;;;5012135;28;20565;-65
2021/10/12 05:57:19;;;;;;;8.77;8.27;;;10.20;99.90;;;;;;5011816;28;20188;-65
2021/10/12 05:59:19;;;;;;;9.03;8.23;;;10.20;99.90;;;;;;5008581;28;20236;-64
2021/10/12 06:01:44;;;;;;;8.33;7.83;;;10.20;99.90;;;;;;5011812;28;20222;-65
2021/10/12 06:04:10;;;;;;;7.97;7.27;;;10.20;99.90;;;;;;5012118;28;20176;-65
2021/10/12 06:06:36;;;;;;;8.87;8.13;;;10.20;99.90;;;;;;5011628;28;20192;-69
2021/10/12 06:09:03;;;;;;;7.93;7.33;;;10.20;99.90;;;;;;5011683;28;20698;-65
2021/10/12 06:11:28;;;;;;;8.07;7.47;;;10.20;99.90;;;;;;5011796;28;20183;-65
2021/10/12 06:13:55;;;;;;;7.80;7.30;;;10.20;99.90;;;;;;5011696;28;20622;-64
2021/10/12 06:16:21;;;;;;;7.43;6.90;;;10.20;99.90;;;;;;5010565;28;20191;-64
2021/10/12 06:18:47;;;;;;;7.57;7.10;;;10.30;99.90;;;;;;5001422;28;20212;-64
2021/10/12 06:21:13;;;;;;;7.67;7.17;;;10.30;99.90;;;;;;4991981;28;20200;-64
2021/10/12 06:23:39;;;;;;;9.13;7.50;;;10.20;99.90;;;;;;4998844;28;20227;-64
2021/10/12 06:26:05;;;;;;;7.60;7.10;;;10.20;99.90;;;;;;5012025;28;20590;-64
2021/10/12 06:28:31;;;;;;;7.80;7.40;;;10.20;99.90;;;;;;5010363;28;20204;-64
2021/10/12 06:30:56;;;;;;;8.10;7.40;;;10.20;99.90;;;;;;5000592;28;20239;-64
2021/10/12 06:33:22;;;;;;;10.73;8.53;;;10.20;99.90;;;;;;5012032;28;20212;-64
2021/10/12 06:35:48;;;;;;;8.47;7.97;;;10.30;99.90;;;;;;4996979;28;20197;-64
2021/10/12 06:38:14;;;;;;;9.43;8.90;;;10.30;99.90;;;;;;4992274;28;20658;-64
2021/10/12 06:40:39;;;;;;;9.67;9.03;;;10.30;99.90;;;;;;4996521;28;20194;-65
2021/10/12 06:43:05;;;;;;;8.43;7.93;;;10.30;99.90;;;;;;5011492;28;20226;-64
2021/10/12 06:45:31;;;;;;;9.03;8.43;;;10.40;99.90;;;;;;5007371;28;20183;-64
2021/10/12 06:47:57;;;;;;;8.27;7.67;;;10.40;99.90;;;;;;5004231;28;20678;-64
2021/10/12 06:50:23;;;;;;;8.83;8.20;;;10.40;99.90;;;;;;5004475;28;20176;-64
2021/10/12 06:52:50;;;;;;;8.07;7.43;;;10.30;99.90;;;;;;5011435;28;20192;-64
2021/10/12 06:55:15;;;;;;;8.83;8.17;;;10.30;99.90;;;;;;5011699;28;20195;-64
2021/10/12 06:57:42;;;;;;;8.47;7.93;;;10.40;99.90;;;;;;5011490;28;20580;-64
2021/10/12 07:00:13;;;;;;;7.87;7.17;;;10.30;99.90;;;;;;5011456;28;20190;-64
2021/10/12 07:02:44;;;;;;;8.47;7.73;;;10.30;99.90;;;;;;5012281;28;20254;-64
2021/10/12 07:05:11;;;;;;;8.43;7.50;;;10.30;99.90;;;;;;5013857;28;20611;-65
2021/10/12 07:07:36;;;;;;;8.83;8.23;;;10.30;99.90;;;;;;5015647;28;20226;-64
2021/10/12 07:10:04;;;;;;;8.57;7.93;;;10.20;99.90;;;;;;5014830;28;20211;-64
2021/10/12 07:12:29;;;;;;;8.37;7.87;;;10.30;99.90;;;;;;5015683;28;20176;-64
2021/10/12 07:14:55;;;;;;;9.50;8.77;;;10.40;99.90;;;;;;5014906;28;20203;-64
2021/10/12 07:17:20;;;;;;;8.47;7.53;;;10.40;99.90;;;;;;5015294;28;20187;-64
2021/10/12 07:19:46;;;;;;;7.80;7.30;;;10.40;99.90;;;;;;5015082;28;20295;-64
2021/10/12 07:22:12;;;;;;;7.60;7.17;;;10.40;99.90;;;;;;5015703;28;20176;-64
2021/10/12 07:24:38;;;;;;;7.30;6.90;;;10.40;99.90;;;;;;5014460;28;20207;-64
2021/10/12 07:27:03;;;;;;;8.10;7.50;;;10.40;99.90;;;;;;5007735;28;20262;-64
2021/10/12 07:29:29;;;;;;;7.60;7.10;;;10.40;99.90;;;;;;5013315;28;20235;-65
2021/10/12 07:31:55;;;;;;;7.33;6.97;;;10.40;99.90;;;;;;5014572;28;20207;-64
2021/10/12 07:34:21;;;;;;;7.90;7.50;;;10.40;99.90;;;;;;5015192;28;20454;-62
2021/10/12 07:36:46;;;;;;;8.20;7.70;;;10.50;99.90;;;;;;5014310;28;20184;-62
2021/10/12 07:39:12;;;;;;;7.50;6.97;;;10.50;99.90;;;;;;5015011;28;20207;-63
2021/10/12 07:41:38;;;;;;;7.13;6.53;;;10.60;99.90;;;;;;5014548;28;20263;-63
2021/10/12 07:44:05;;;;;;;7.53;7.13;;;10.60;99.90;;;;;;5014803;28;20199;-64
2021/10/12 07:46:31;;;;;;;7.33;6.83;;;10.70;99.90;;;;;;5014501;28;20212;-64
2021/10/12 07:49:00;;;;;;;7.40;7.00;;;10.70;99.90;;;;;;5014472;28;20222;-64
2021/10/12 07:51:26;;;;;;;8.17;7.57;;;10.70;99.90;;;;;;5000828;28;20650;-65
2021/10/12 07:53:53;;;;;;;8.47;7.97;;;10.70;99.90;;;;;;5006821;28;20279;-64
2021/10/12 07:56:35;;;;;;;7.70;7.20;;;10.70;99.90;;;;;;4995159;28;20208;-64
2021/10/12 07:59:05;;;;;;;9.23;8.50;;;10.70;99.90;;;;;;4995337;28;20709;-65
2021/10/12 08:01:31;;;;;;;8.53;8.03;;;10.70;99.90;;;;;;4994891;28;20549;-64
2021/10/12 08:03:57;;;;;;;8.27;7.63;;;10.70;99.90;;;;;;5002128;28;20180;-64
2021/10/12 08:06:23;;;;;;;7.90;7.10;;;10.70;99.90;;;;;;5014809;28;20187;-64
2021/10/12 08:08:48;;;;;;;8.90;8.20;;;10.70;99.90;;;;;;4996074;28;20208;-65
2021/10/12 08:11:17;;;;;;;9.10;8.07;;;10.70;99.90;;;;;;4996322;28;20188;-65
2021/10/12 08:13:42;;;;;;;8.57;7.83;;;10.70;99.90;;;;;;4994487;28;20260;-65
2021/10/12 08:16:09;;;;;;;8.77;8.13;;;10.70;99.90;;;;;;5002967;28;20188;-65
2021/10/12 08:18:36;;;;;;;9.60;8.80;;;10.70;99.90;;;;;;5012462;28;20294;-65
2021/10/12 08:21:02;;;;;;;7.77;7.30;;;10.80;99.90;;;;;;5012166;28;20230;-64
2021/10/12 08:23:28;;;;;;;8.83;8.13;;;10.80;99.90;;;;;;4996658;28;20228;-65
2021/10/12 08:25:54;;;;;;;10.70;10.00;;;10.80;99.90;;;;;;4996375;28;20173;-65
2021/10/12 08:28:20;;;;;;;9.40;8.47;;;10.80;99.90;;;;;;5006654;28;20669;-65
2021/10/12 08:30:45;;;;;;;8.70;8.00;;;10.80;99.90;;;;;;5009016;28;20196;-65
2021/10/12 08:33:11;;;;;;;10.23;9.27;;;10.80;99.90;;;;;;5013668;28;20187;-65
2021/10/12 08:35:37;;;;;;;11.20;10.37;;;10.80;99.90;;;;;;5012950;28;20192;-63
2021/10/12 08:38:02;;;;;;;12.13;11.10;;;10.80;99.90;;;;;;5013063;28;20228;-65
2021/10/12 08:40:30;;;;;;;11.90;11.07;;;10.80;99.90;;;;;;5011908;28;20568;-65
2021/10/12 08:42:58;;;;;;;12.10;11.30;;;10.80;99.90;;;;;;5013342;28;20182;-65
2021/10/12 08:45:24;;;;;;;12.07;11.10;;;10.80;99.90;;;;;;5013230;28;20187;-65
2021/10/12 08:47:51;;;;;;;11.53;10.63;;;10.80;99.90;;;;;;5013512;28;20188;-65
2021/10/12 08:50:21;;;;;;;11.40;10.60;;;10.90;99.90;;;;;;5003853;28;20192;-66
2021/10/12 08:52:48;;;;;;;11.67;10.93;;;10.90;99.90;;;;;;4993633;28;20200;-65
2021/10/12 08:55:14;;;;;;;10.80;10.07;;;10.90;99.90;;;;;;5008143;28;20180;-65
2021/10/12 08:57:43;;;;;;;9.60;8.90;;;11.00;99.90;;;;;;5012708;28;20204;-65
2021/10/12 09:00:13;;;;;;;10.93;10.10;;;11.00;99.90;;;;;;4997966;28;20184;-65
2021/10/12 09:06:08;;;;;;;9.03;8.43;;;11.00;99.90;;;;;;4993624;28;20535;-65
2021/10/12 09:08:38;;;;;;;10.50;9.63;;;11.00;99.90;;;;;;5002864;28;20291;-64
2021/10/12 09:11:05;;;;;;;10.20;9.47;;;11.00;99.90;;;;;;5012885;28;20207;-64
2021/10/12 09:13:44;;;;;;;11.10;10.47;;;11.10;99.90;;;;;;5012870;28;20234;-64
2021/10/12 09:16:17;;;;;;;10.70;9.80;;;11.20;99.90;;;;;;5013198;28;20179;-64
2021/10/12 09:18:55;;;;;;;9.20;8.60;;;11.20;99.90;;;;;;5012693;28;20219;-64
2021/10/12 09:21:25;;;;;;;11.30;10.60;;;11.20;99.90;;;;;;5012652;28;20180;-64
2021/10/12 09:24:01;;;;;;;10.97;10.13;;;11.20;99.90;;;;;;4993333;28;20192;-65
2021/10/12 09:26:32;;;;;;;10.40;9.63;;;11.20;99.90;;;;;;5010740;28;20191;-64
2021/10/12 09:29:09;;;;;;;13.63;12.53;;;11.10;99.90;;;;;;5012022;28;20218;-64
2021/10/12 09:31:41;;;;;;;10.60;10.00;;;11.00;99.90;;;;;;5013123;28;20175;-64
2021/10/12 09:34:08;;;;;;;9.97;9.10;;;11.00;99.90;;;;;;5013313;28;20195;-64
2021/10/12 09:36:40;;;;;;;10.20;9.50;;;11.00;99.90;;;;;;5011866;28;20172;-64
2021/10/12 09:39:07;;;;;;;9.97;9.20;;;11.00;99.90;;;;;;5011257;28;20219;-64
2021/10/12 09:41:33;;;;;;;10.00;9.13;;;11.00;99.90;;;;;;5012063;28;20641;-65
2021/10/12 09:44:12;;;;;;;9.83;9.10;;;11.00;99.90;;;;;;5012332;28;20543;-65
2021/10/12 09:46:40;;;;;;;9.37;8.67;;;11.00;99.90;;;;;;5013095;28;20175;-65
2021/10/12 09:49:25;;;;;;;9.50;8.70;;;11.00;99.90;;;;;;5012561;28;20203;-65
2021/10/12 09:52:03;;;;;;;8.87;8.33;;;11.10;99.90;;;;;;5012757;28;20172;-65
2021/10/12 09:54:33;;;;;;;9.63;8.97;;;11.10;99.90;;;;;;5013196;28;20184;-65
2021/10/12 09:57:03;;;;;;;10.50;9.50;;;11.10;99.90;;;;;;5012611;28;20214;-65
2021/10/12 09:59:29;;;;;;;9.40;8.80;;;11.10;99.90;;;;;;5012777;28;20203;-65
2021/10/12 10:01:56;;;;;;;10.23;9.53;;;11.20;99.90;;;;;;5012956;28;20653;-65
2021/10/12 10:04:24;;;;;;;10.77;9.77;;;11.20;99.90;;;;;;5012844;28;20172;-65
2021/10/12 10:06:51;;;;;;;9.70;9.00;;;11.20;99.90;;;;;;5012415;28;20168;-65
2021/10/12 10:09:21;;;;;;;10.37;9.57;;;11.20;99.90;;;;;;5012319;28;20565;-65
2021/10/12 10:11:47;;;;;;;11.20;10.30;;;11.30;99.90;;;;;;5012403;28;20573;-65
2021/10/12 10:14:14;;;;;;;10.90;9.90;;;11.40;99.90;;;;;;5012905;28;20385;-65
2021/10/12 10:16:49;;;;;;;11.07;10.13;;;11.40;99.90;;;;;;5027491;28;20179;-65
2021/10/12 10:19:19;;;;;;;9.83;8.93;;;11.50;99.90;;;;;;5012075;28;20207;-65
2021/10/12 10:21:48;;;;;;;11.60;10.80;;;11.60;99.90;;;;;;5011942;28;20179;-66
2021/10/12 10:24:29;;;;;;;10.93;9.77;;;11.70;99.90;;;;;;5011897;28;20661;-66
2021/10/12 10:26:54;;;;;;;9.40;8.73;;;11.80;99.90;;;;;;5011593;28;20168;-66
2021/10/12 10:29:27;;;;;;;10.90;10.00;;;11.70;99.90;;;;;;5011461;28;20254;-65
2021/10/12 10:32:00;;;;;;;10.43;9.60;;;11.80;99.90;;;;;;5011759;28;20208;-65
2021/10/12 10:34:33;;;;;;;10.43;9.63;;;12.00;99.90;;;;;;5011843;28;20176;-65
2021/10/12 10:37:16;;;;;;;11.23;10.13;;;12.00;99.90;;;;;;5012638;28;20187;-66
2021/10/12 10:39:43;;;;;;;10.97;10.03;;;12.20;99.90;;;;;;5015206;28;20286;-66
2021/10/12 10:42:29;;;;;;;10.43;9.53;;;12.40;99.90;;;;;;5014929;28;20168;-66
2021/10/12 10:45:01;;;;;;;10.27;9.47;;;12.50;99.90;;;;;;5014431;28;20184;-66
2021/10/12 10:47:44;;;;;;;11.33;10.07;;;12.50;99.90;;;;;;5015640;28;20184;-65
2021/10/12 10:50:28;;;;;;;11.67;10.73;;;12.60;99.90;;;;;;5015558;28;20228;-65
2021/10/12 10:52:56;;;;;;;11.60;10.70;;;12.90;99.90;;;;;;5015320;28;20172;-66
2021/10/12 10:55:26;;;;;;;10.20;9.27;;;13.00;99.90;;;;;;5015493;28;20250;-65
2021/10/12 10:58:14;;;;;;;10.97;10.03;;;13.10;99.90;;;;;;5030219;28;20204;-66
2021/10/12 11:00:49;;;;;;;9.27;8.40;;;13.20;99.90;;;;;;5014908;28;20291;-65
2021/10/12 11:03:36;;;;;;;10.30;9.40;;;13.20;99.90;;;;;;5015290;28;20520;-65
2021/10/12 11:06:20;;;;;;;8.63;8.03;;;13.20;99.90;;;;;;5015415;28;20168;-65
2021/10/12 11:08:56;;;;;;;12.60;10.30;;;13.00;99.90;;;;;;5015071;28;20206;-65
2021/10/12 11:11:22;;;;;;;10.47;9.67;;;12.80;99.90;;;;;;5015062;28;20172;-66
2021/10/12 11:13:48;;;;;;;10.03;8.97;;;12.60;99.90;;;;;;5014945;28;20703;-65
2021/10/12 11:16:17;;;;;;;9.87;9.10;;;12.40;99.90;;;;;;5015088;28;20176;-65
2021/10/12 11:18:57;;;;;;;9.73;8.93;;;12.40;99.90;;;;;;5014726;28;20239;-65
2021/10/12 11:21:23;;;;;;;9.57;8.67;;;12.40;99.90;;;;;;5014899;28;20175;-65
2021/10/12 11:23:50;;;;;;;10.20;9.20;;;12.50;99.90;;;;;;5014856;28;20743;-66
2021/10/12 11:26:20;;;;;;;9.90;9.20;;;12.40;99.90;;;;;;5014922;28;20176;-66
2021/10/12 11:28:53;;;;;;;10.93;9.97;;;12.40;99.90;;;;;;5013262;28;20204;-66
2021/10/12 11:31:22;;;;;;;9.50;8.83;;;12.40;99.90;;;;;;5014617;28;20184;-65
2021/10/12 11:33:53;;;;;;;9.40;8.70;;;12.40;99.90;;;;;;5014626;28;20216;-66
2021/10/12 11:36:21;;;;;;;9.63;8.73;;;12.40;99.90;;;;;;5014823;28;20180;-65
2021/10/12 11:38:54;;;;;;;8.73;8.07;;;12.40;99.90;;;;;;5014387;28;20284;-65
2021/10/12 11:41:21;;;;;;;9.50;8.80;;;12.40;99.90;;;;;;5013585;28;20508;-66
2021/10/12 11:43:49;;;;;;;9.43;8.53;;;12.40;99.90;;;;;;5013909;28;20184;-65
2021/10/12 11:46:24;;;;;;;9.60;8.83;;;12.40;99.90;;;;;;5014536;28;20226;-65
2021/10/12 11:48:50;;;;;;;8.90;8.30;;;12.40;99.90;;;;;;5004623;28;20283;-66
2021/10/12 11:51:29;;;;;;;9.50;8.80;;;12.30;99.90;;;;;;4994649;28;20264;-65
2021/10/12 11:53:56;;;;;;;9.40;8.70;;;12.40;99.90;;;;;;5014233;28;20188;-65
2021/10/12 11:56:23;;;;;;;9.03;8.30;;;12.40;99.90;;;;;;5001080;28;20705;-65
2021/10/12 11:58:56;;;;;;;7.93;7.43;;;12.40;99.90;;;;;;4996396;28;20219;-65
2021/10/12 12:01:47;;;;;;;8.73;8.10;;;12.50;99.90;;;;;;5013287;28;20180;-65
2021/10/12 12:04:34;;;;;;;8.20;7.70;;;12.60;99.90;;;;;;5010490;28;20184;-66
2021/10/12 12:07:05;;;;;;;8.90;8.20;;;12.80;99.90;;;;;;5001723;28;20273;-65
2021/10/12 12:09:32;;;;;;;9.10;8.43;;;12.80;99.90;;;;;;4994192;28;20504;-66
2021/10/12 12:12:06;;;;;;;8.33;7.83;;;12.80;99.90;;;;;;5010616;28;20650;-65
2021/10/12 12:14:33;;;;;;;8.70;8.20;;;12.80;99.90;;;;;;4994452;28;20173;-65
2021/10/12 12:17:19;;;;;;;9.77;9.03;;;12.90;99.90;;;;;;5004242;28;20195;-64
2021/10/12 12:19:49;;;;;;;8.30;7.73;;;13.00;99.90;;;;;;5013348;28;20619;-64
2021/10/12 12:22:27;;;;;;;9.13;8.50;;;13.00;99.90;;;;;;5001541;28;20665;-66
2021/10/12 12:25:00;;;;;;;8.03;7.53;;;13.00;99.90;;;;;;4993955;28;20364;-65
2021/10/12 12:27:28;;;;;;;7.27;6.77;;;13.00;99.90;;;;;;5006946;28;20238;-65
2021/10/12 12:30:07;;;;;;;7.47;6.97;;;12.90;99.90;;;;;;5013099;28;20196;-65
2021/10/12 12:32:33;;;;;;;7.00;6.60;;;12.90;99.90;;;;;;5012017;28;20187;-65
2021/10/12 12:35:04;;;;;;;6.70;6.37;;;13.00;99.90;;;;;;5013143;28;20180;-65
2021/10/12 12:37:30;;;;;;;7.30;6.80;;;13.10;99.90;;;;;;5013780;28;20221;-65
2021/10/12 12:39:56;;;;;;;7.17;6.77;;;13.10;99.90;;;;;;5001011;28;20673;-65
2021/10/12 12:42:37;;;;;;;7.43;6.93;;;13.20;99.90;;;;;;5013329;28;20183;-66
2021/10/12 12:45:22;;;;;;;8.17;7.60;;;13.40;99.90;;;;;;5004475;28;20608;-65
2021/10/12 12:47:57;;;;;;;8.20;7.50;;;13.60;99.90;;;;;;4993616;28;20176;-66
2021/10/12 12:50:28;;;;;;;7.30;6.90;;;13.60;99.90;;;;;;5003877;28;20536;-65
2021/10/12 12:52:57;;;;;;;8.37;7.57;;;13.60;99.90;;;;;;5013143;28;20184;-65